createdAt,value
2019-04-22T00:00:37.258Z,57.40
2019-04-22T00:06:00.394Z,58.00
2019-04-22T00:11:18.499Z,58.80
2019-04-22T00:16:27.961Z,59.50
2019-04-22T00:21:32.013Z,60.00
2019-04-22T00:26:38.693Z,60.90
2019-04-22T00:31:40.391Z,60.90
2019-04-22T00:36:52.650Z,61.90
2019-04-22T00:41:57.056Z,63.60
2019-04-22T00:47:00.657Z,64.80
2019-04-22T00:52:09.317Z,65.40
2019-04-22T00:57:15.348Z,65.30
2019-04-22T01:02:27.979Z,65.10
2019-04-22T01:07:30.516Z,65.30
2019-04-22T01:12:42.197Z,65.80
2019-04-22T01:17:49.495Z,66.50
2019-04-22T01:22:47.753Z,66.90
2019-04-22T01:27:48.821Z,67.40
2019-04-22T01:32:43.219Z,68.10
2019-04-22T01:37:59.777Z,68.60
2019-04-22T01:43:16.889Z,69.20
2019-04-22T01:48:26.588Z,69.90
2019-04-22T01:53:33.727Z,70.50
2019-04-22T01:58:30.763Z,70.70
2019-04-22T02:03:46.707Z,71.90
2019-04-22T02:08:55.243Z,74.00
2019-04-22T02:13:56.718Z,74.30
2019-04-22T02:19:11.966Z,74.90
2019-04-22T02:24:13.333Z,76.00
2019-04-22T02:29:14.995Z,77.00
2019-04-22T02:39:34.478Z,77.30
2019-04-22T02:44:40.777Z,77.60
2019-04-22T02:49:47.166Z,78.30
2019-04-22T02:54:55.149Z,78.40
2019-04-22T03:00:07.440Z,79.70
2019-04-22T03:05:13.125Z,79.70
2019-04-22T03:10:24.594Z,81.20
2019-04-22T03:15:13.591Z,81.30
2019-04-22T03:20:42.669Z,81.30
2019-04-22T03:36:05.176Z,84.20
2019-04-22T03:41:15.303Z,83.90
2019-04-22T03:45:51.705Z,83.50
2019-04-22T03:51:22.309Z,82.60
2019-04-22T03:56:52.145Z,82.20
2019-04-22T04:01:30.468Z,81.70
2019-04-22T04:06:29.746Z,81.90
2019-04-22T04:11:43.289Z,81.50
2019-04-22T04:17:00.200Z,81.80
2019-04-22T04:21:48.841Z,81.50
2019-04-22T04:27:20.845Z,81.70
2019-04-22T04:32:20.725Z,81.10
2019-04-22T04:37:24.298Z,81.40
2019-04-22T04:42:26.033Z,80.40
2019-04-22T04:47:37.189Z,79.90
2019-04-22T04:52:38.665Z,79.00
2019-04-22T04:57:54.883Z,78.20
2019-04-22T05:02:48.915Z,77.40
2019-04-22T05:13:01.907Z,75.80
2019-04-22T05:17:58.111Z,74.60
2019-04-22T05:23:01.156Z,73.30
2019-04-22T05:28:05.028Z,72.90
2019-04-22T05:33:10.814Z,72.30
2019-04-22T05:38:53.477Z,71.40
2019-04-22T05:43:25.374Z,70.30
2019-04-22T05:48:37.331Z,70.00
2019-04-22T05:53:32.445Z,69.90
2019-04-22T05:58:50.058Z,71.40
2019-04-22T06:08:57.651Z,69.70
2019-04-22T06:14:02.299Z,69.90
2019-04-22T06:19:13.729Z,70.30
2019-04-22T06:24:23.607Z,69.30
2019-04-22T06:29:25.049Z,68.90
2019-04-22T06:39:36.935Z,67.90
2019-04-22T06:44:47.940Z,68.10
2019-04-22T06:49:49.270Z,68.10
2019-04-22T06:55:03.303Z,67.10
2019-04-22T07:00:08.290Z,65.40
2019-04-22T07:05:27.955Z,65.50
2019-04-22T07:10:28.624Z,65.40
2019-04-22T07:15:45.185Z,65.90
2019-04-22T07:20:41.646Z,62.60
2019-04-22T07:25:40.772Z,62.60
2019-04-22T07:30:46.079Z,62.80
2019-04-22T07:36:12.602Z,59.50
2019-04-22T07:40:56.275Z,58.70
2019-04-22T07:46:10.968Z,55.90
2019-04-22T07:51:26.846Z,55.30
2019-04-22T07:56:21.498Z,56.10
2019-04-22T08:01:29.616Z,55.80
2019-04-22T08:06:43.635Z,55.70
2019-04-22T08:11:52.240Z,53.90
2019-04-22T08:16:51.329Z,51.90
2019-04-22T08:22:00.003Z,50.40
2019-04-22T08:27:00.654Z,49.50
2019-04-22T08:32:05.024Z,49.20
2019-04-22T08:42:27.875Z,46.70
2019-04-22T08:47:31.187Z,46.20
2019-04-22T08:52:57.585Z,45.20
2019-04-22T08:58:06.774Z,46.20
2019-04-22T09:02:53.942Z,46.40
2019-04-22T09:08:02.089Z,46.00
2019-04-22T09:18:14.739Z,46.50
2019-04-22T09:23:24.260Z,46.80
2019-04-22T09:28:24.566Z,46.80
2019-04-22T09:33:31.314Z,46.00
2019-04-22T09:48:59.831Z,43.30
2019-04-22T09:54:12.480Z,42.50
2019-04-22T09:59:05.600Z,39.30
2019-04-22T10:04:27.582Z,33.10
2019-04-22T10:09:34.798Z,29.20
2019-04-22T10:14:28.958Z,29.70
2019-04-22T10:19:30.003Z,27.10
2019-04-22T10:24:39.343Z,24.00
2019-04-22T10:29:54.196Z,21.70
2019-04-22T10:34:38.742Z,24.70
2019-04-22T10:39:45.875Z,24.30
2019-04-22T10:44:46.155Z,22.00
2019-04-22T10:49:52.250Z,21.40
2019-04-22T10:54:57.315Z,22.30
2019-04-22T11:00:02.876Z,20.30
2019-04-22T11:05:08.490Z,20.40
2019-04-22T11:10:29.353Z,21.40
2019-04-22T11:15:20.033Z,21.30
2019-04-22T11:20:26.012Z,20.90
2019-04-22T11:25:31.918Z,19.40
2019-04-22T11:30:38.581Z,18.50
2019-04-22T11:35:43.870Z,16.90
2019-04-22T11:40:53.503Z,16.70
2019-04-22T11:45:57.521Z,18.40
2019-04-22T11:51:04.361Z,20.30
2019-04-22T11:56:09.380Z,20.10
2019-04-22T12:01:15.012Z,20.80
2019-04-22T12:06:20.021Z,21.80
2019-04-22T12:11:26.261Z,19.90
2019-04-22T12:16:31.654Z,19.40
2019-04-22T12:21:37.106Z,20.20
2019-04-22T12:26:42.404Z,19.40
2019-04-22T12:31:49.343Z,18.80
2019-04-22T12:36:54.548Z,19.30
2019-04-22T12:42:04.369Z,19.40
2019-04-22T12:47:12.744Z,18.00
2019-04-22T12:52:24.477Z,18.70
2019-04-22T12:57:23.025Z,18.00
2019-04-22T13:02:29.271Z,19.70
2019-04-22T13:07:35.643Z,18.40
2019-04-22T13:12:42.622Z,17.50
2019-04-22T13:18:02.335Z,16.60
2019-04-22T13:22:56.900Z,17.50
2019-04-22T13:28:02.984Z,17.30
2019-04-22T13:33:08.163Z,17.20
2019-04-22T13:38:13.231Z,17.00
2019-04-22T13:43:18.922Z,16.20
2019-04-22T13:48:46.946Z,15.70
2019-04-22T13:54:30.036Z,15.90
2019-04-22T13:58:54.072Z,15.40
2019-04-22T14:03:46.912Z,17.30
2019-04-22T14:08:53.408Z,16.80
2019-04-22T14:13:58.834Z,16.30
2019-04-22T14:19:03.685Z,18.40
2019-04-22T14:24:11.760Z,17.30
2019-04-22T14:29:15.734Z,16.70
2019-04-22T14:34:20.861Z,16.20
2019-04-22T14:39:28.067Z,17.00
2019-04-22T14:50:07.639Z,22.80
2019-04-22T14:54:58.488Z,20.20
2019-04-22T14:59:55.899Z,19.20
2019-04-22T15:05:00.834Z,18.50
2019-04-22T15:10:08.323Z,18.50
2019-04-22T15:15:15.568Z,19.00
2019-04-22T15:20:23.678Z,19.50
2019-04-22T15:25:30.485Z,18.20
2019-04-22T15:30:37.301Z,18.50
2019-04-22T15:35:43.270Z,20.00
2019-04-22T15:40:49.013Z,25.10
2019-04-22T15:45:54.858Z,27.90
2019-04-22T15:51:00.550Z,25.00
2019-04-22T15:56:06.371Z,23.60
2019-04-22T16:01:19.321Z,22.00
2019-04-22T16:06:17.963Z,21.00
2019-04-22T16:11:24.145Z,20.60
2019-04-22T16:16:30.537Z,22.30
2019-04-22T16:21:45.111Z,24.60
2019-04-22T16:26:44.511Z,26.90
2019-04-22T16:31:49.707Z,27.00
2019-04-22T16:36:54.674Z,28.60
2019-04-22T16:42:00.741Z,27.30
2019-04-22T16:47:05.813Z,26.00
2019-04-22T16:52:12.074Z,25.30
2019-04-22T16:57:17.841Z,26.20
2019-04-22T17:02:24.796Z,27.30
2019-04-22T17:07:31.915Z,28.80
2019-04-22T17:12:47.868Z,29.60
2019-04-22T17:17:45.308Z,30.50
2019-04-22T17:22:51.575Z,31.50
2019-04-22T17:27:57.368Z,34.50
2019-04-22T17:33:03.179Z,37.50
2019-04-22T17:38:16.650Z,39.20
2019-04-22T17:43:52.266Z,40.30
2019-04-22T17:48:49.093Z,41.20
2019-04-22T17:53:55.032Z,42.00
2019-04-22T17:58:58.761Z,42.50
2019-04-22T18:03:49.639Z,43.10
2019-04-22T18:09:04.949Z,43.40
2019-04-22T18:19:19.634Z,44.50
2019-04-22T18:24:20.013Z,44.70
2019-04-22T18:29:35.834Z,46.20
2019-04-22T18:34:35.054Z,46.00
2019-04-22T18:39:52.762Z,46.30
2019-04-22T18:45:06.807Z,45.90
2019-04-22T18:50:00.771Z,46.10
2019-04-22T18:55:07.269Z,46.50
2019-04-22T19:00:02.409Z,46.80
2019-04-22T19:05:17.318Z,47.20
2019-04-22T19:10:46.395Z,47.60
2019-04-22T19:15:47.173Z,47.80
2019-04-22T19:20:53.733Z,48.10
2019-04-22T19:25:46.949Z,48.40
2019-04-22T19:31:02.663Z,48.70
2019-04-22T19:36:10.972Z,49.00
2019-04-22T19:41:37.429Z,49.20
2019-04-22T19:46:35.306Z,49.60
2019-04-22T19:51:55.547Z,49.80
2019-04-22T19:56:42.819Z,49.70
2019-04-22T20:01:58.667Z,49.60
2019-04-22T20:07:09.903Z,49.90
2019-04-22T20:12:11.864Z,49.90
2019-04-22T20:17:30.058Z,50.00
2019-04-22T20:22:29.900Z,50.30
2019-04-22T20:27:36.509Z,50.60
2019-04-22T20:32:56.344Z,50.90
2019-04-22T20:38:08.923Z,51.10
2019-04-22T20:43:22.103Z,51.00
2019-04-22T20:48:09.215Z,50.70
2019-04-22T20:53:32.843Z,50.50
2019-04-22T20:58:34.316Z,50.30
2019-04-22T21:03:30.832Z,50.10
2019-04-22T21:08:51.409Z,50.10
2019-04-22T21:13:52.512Z,50.10
2019-04-22T21:18:58.183Z,50.40
2019-04-22T21:23:59.457Z,49.60
2019-04-22T21:29:09.859Z,49.70
2019-04-22T21:34:19.552Z,49.60
2019-04-22T21:39:26.340Z,49.50
2019-04-22T21:44:36.889Z,49.60
2019-04-22T21:49:45.884Z,49.90
2019-04-22T21:54:57.392Z,49.80
2019-04-22T21:59:57.957Z,49.80
2019-04-22T22:04:58.989Z,50.00
2019-04-22T22:10:09.171Z,50.20
2019-04-22T22:15:13.271Z,50.40
2019-04-22T22:20:14.618Z,50.80
2019-04-22T22:25:28.029Z,51.00
2019-04-22T22:35:43.953Z,51.40
2019-04-22T22:40:32.367Z,51.30
2019-04-22T22:45:43.786Z,51.50
2019-04-22T22:50:59.162Z,51.60
2019-04-22T22:56:10.455Z,51.40
2019-04-22T23:01:18.557Z,51.60
2019-04-22T23:06:29.293Z,51.40
2019-04-22T23:11:50.812Z,51.70
2019-04-22T23:16:28.178Z,51.70
2019-04-22T23:21:30.634Z,51.50
2019-04-22T23:26:48.523Z,51.60
2019-04-22T23:31:48.652Z,51.60
2019-04-22T23:36:55.607Z,51.30
2019-04-22T23:42:18.954Z,51.30
2019-04-22T23:47:12.177Z,51.50
2019-04-22T23:52:28.858Z,51.60
2019-04-22T23:57:33.306Z,51.50
